createdAt,value
2022-09-26T00:04:10.569Z,21.40
2022-09-26T00:06:43.961Z,24.95
2022-09-26T00:09:17.525Z,21.38
2022-09-26T00:11:50.352Z,20.80
2022-09-26T00:14:28.892Z,20.35
2022-09-26T00:17:01.638Z,19.35
2022-09-26T00:19:34.307Z,18.77
2022-09-26T00:22:06.781Z,22.80
2022-09-26T00:24:39.435Z,19.98
2022-09-26T00:27:11.950Z,20.67
2022-09-26T00:29:44.438Z,26.48
2022-09-26T00:32:17.366Z,19.05
2022-09-26T00:34:51.046Z,16.45
2022-09-26T00:37:23.733Z,17.65
2022-09-26T00:39:56.817Z,17.13
2022-09-26T00:42:31.248Z,16.35
2022-09-26T00:45:04.217Z,17.08
2022-09-26T00:47:58.731Z,15.35
2022-09-26T00:50:36.836Z,19.25
2022-09-26T00:53:15.472Z,16.88
2022-09-26T00:55:56.566Z,17.75
2022-09-26T00:58:37.267Z,19.75
2022-09-26T01:01:10.368Z,15.27
2022-09-26T01:03:45.361Z,21.75
2022-09-26T01:06:18.801Z,22.60
2022-09-26T01:08:57.872Z,14.63
2022-09-26T01:11:32.260Z,16.30
2022-09-26T01:14:08.035Z,13.55
2022-09-26T01:16:45.157Z,15.18
2022-09-26T01:19:41.176Z,14.35
2022-09-26T01:22:29.871Z,14.40
2022-09-26T01:25:18.716Z,15.68
2022-09-26T01:28:08.498Z,18.98
2022-09-26T01:30:49.119Z,12.40
2022-09-26T01:33:39.351Z,14.77
2022-09-26T01:36:37.585Z,14.25
2022-09-26T01:39:20.130Z,11.32
2022-09-26T01:42:14.900Z,9.80
2022-09-26T01:45:08.242Z,12.27
2022-09-26T01:47:49.915Z,9.43
2022-09-26T01:50:41.450Z,10.13
2022-09-26T01:53:23.874Z,10.52
2022-09-26T01:56:05.200Z,9.70
2022-09-26T01:58:41.059Z,11.23
2022-09-26T02:01:17.147Z,9.57
2022-09-26T02:03:55.013Z,8.43
2022-09-26T02:06:38.924Z,9.13
2022-09-26T02:09:18.298Z,9.00
2022-09-26T02:11:53.501Z,10.63
2022-09-26T02:14:39.820Z,8.73
2022-09-26T02:17:17.303Z,11.00
2022-09-26T02:20:03.112Z,11.90
2022-09-26T02:25:09.527Z,9.20
2022-09-26T02:27:44.285Z,8.40
2022-09-26T02:30:17.495Z,8.55
2022-09-26T02:32:50.512Z,10.02
2022-09-26T02:35:39.541Z,9.77
2022-09-26T02:38:12.132Z,11.50
2022-09-26T02:41:26.957Z,9.60
2022-09-26T02:44:22.369Z,8.65
2022-09-26T02:47:18.571Z,13.33
2022-09-26T02:52:32.878Z,8.80
2022-09-26T02:55:15.929Z,9.57
2022-09-26T02:58:11.053Z,9.57
2022-09-26T03:01:05.621Z,8.10
2022-09-26T03:03:48.344Z,13.23
2022-09-26T03:06:27.462Z,9.68
2022-09-26T03:09:02.207Z,7.07
2022-09-26T03:11:36.413Z,8.40
2022-09-26T03:14:10.984Z,10.48
2022-09-26T03:16:45.535Z,7.03
2022-09-26T03:19:20.305Z,6.88
2022-09-26T03:21:53.247Z,9.63
2022-09-26T03:24:27.274Z,9.20
2022-09-26T03:27:05.657Z,9.25
2022-09-26T03:29:41.383Z,8.20
2022-09-26T03:32:20.308Z,9.50
2022-09-26T03:34:55.187Z,9.10
2022-09-26T03:37:28.404Z,7.65
2022-09-26T03:40:04.094Z,7.50
2022-09-26T03:42:56.673Z,8.55
2022-09-26T03:45:30.118Z,6.25
2022-09-26T03:48:08.655Z,5.60
2022-09-26T03:50:43.077Z,8.02
2022-09-26T03:53:15.846Z,6.47
2022-09-26T03:55:51.506Z,8.57
2022-09-26T03:58:25.291Z,8.88
2022-09-26T04:01:05.018Z,7.90
2022-09-26T04:03:40.345Z,5.93
2022-09-26T04:06:13.866Z,6.95
2022-09-26T04:08:48.756Z,5.82
2022-09-26T04:11:24.877Z,8.68
2022-09-26T04:13:57.909Z,6.43
2022-09-26T04:16:37.299Z,5.47
2022-09-26T04:19:19.615Z,5.97
2022-09-26T04:21:52.526Z,7.60
2022-09-26T04:24:26.377Z,11.68
2022-09-26T04:26:59.742Z,5.47
2022-09-26T04:29:32.929Z,6.05
2022-09-26T04:32:13.658Z,6.13
2022-09-26T04:35:01.364Z,5.43
2022-09-26T04:37:37.275Z,9.63
2022-09-26T04:40:11.592Z,9.52
2022-09-26T04:42:53.393Z,6.03
2022-09-26T04:45:26.088Z,6.70
2022-09-26T04:47:59.009Z,4.85
2022-09-26T04:50:31.791Z,7.45
2022-09-26T04:53:10.204Z,5.03
2022-09-26T04:55:48.604Z,5.53
2022-09-26T04:58:21.926Z,9.27
2022-09-26T05:00:54.723Z,7.05
2022-09-26T05:03:38.189Z,6.70
2022-09-26T05:06:11.868Z,6.93
2022-09-26T05:08:47.365Z,7.55
2022-09-26T05:11:23.416Z,7.20
2022-09-26T05:13:56.396Z,5.25
2022-09-26T05:16:31.793Z,6.70
2022-09-26T05:19:06.887Z,5.28
2022-09-26T05:24:30.718Z,11.15
2022-09-26T05:27:07.406Z,6.40
2022-09-26T05:29:40.583Z,4.85
2022-09-26T05:32:15.378Z,5.55
2022-09-26T05:34:49.212Z,4.72
2022-09-26T05:37:24.631Z,5.70
2022-09-26T05:40:13.150Z,6.38
2022-09-26T05:42:51.300Z,5.00
2022-09-26T05:45:23.958Z,4.65
2022-09-26T05:47:56.484Z,4.90
2022-09-26T05:50:29.185Z,9.73
2022-09-26T05:53:03.297Z,6.38
2022-09-26T05:55:38.007Z,5.00
2022-09-26T05:58:11.093Z,6.72
2022-09-26T06:01:08.568Z,7.22
2022-09-26T06:03:44.454Z,8.32
2022-09-26T06:06:25.138Z,6.88
2022-09-26T06:09:04.210Z,5.93
2022-09-26T06:11:57.877Z,6.40
2022-09-26T06:14:32.441Z,9.07
2022-09-26T06:19:39.123Z,5.18
2022-09-26T06:22:12.963Z,7.32
2022-09-26T06:24:45.603Z,4.57
2022-09-26T06:27:23.283Z,4.70
2022-09-26T06:29:56.017Z,7.10
2022-09-26T06:32:29.509Z,8.00
2022-09-26T06:35:18.030Z,6.28
2022-09-26T06:37:59.941Z,6.72
2022-09-26T06:40:33.948Z,5.72
2022-09-26T06:43:06.833Z,7.32
2022-09-26T06:45:59.281Z,5.53
2022-09-26T06:48:40.900Z,7.63
2022-09-26T06:51:25.137Z,8.15
2022-09-26T06:54:00.857Z,6.03
2022-09-26T06:56:33.580Z,9.35
2022-09-26T06:59:06.365Z,4.60
2022-09-26T07:01:41.614Z,6.93
2022-09-26T07:04:36.383Z,5.35
2022-09-26T07:07:21.996Z,5.65
2022-09-26T07:09:54.505Z,7.63
2022-09-26T07:12:44.684Z,6.47
2022-09-26T07:15:20.372Z,5.80
2022-09-26T07:17:54.040Z,6.43
2022-09-26T07:20:45.951Z,9.25
2022-09-26T07:23:34.153Z,5.45
2022-09-26T07:26:07.352Z,6.28
2022-09-26T07:28:40.960Z,8.63
2022-09-26T07:31:14.239Z,5.57
2022-09-26T07:33:51.535Z,8.15
2022-09-26T07:36:24.546Z,6.13
2022-09-26T07:38:58.647Z,4.90
2022-09-26T07:41:32.159Z,6.80
2022-09-26T07:47:13.829Z,6.50
2022-09-26T07:50:03.446Z,8.95
2022-09-26T07:52:52.717Z,7.50
2022-09-26T07:55:28.311Z,8.27
2022-09-26T07:58:16.287Z,5.80
2022-09-26T08:01:11.601Z,8.65
2022-09-26T08:04:00.040Z,7.90
2022-09-26T08:06:37.714Z,10.70
2022-09-26T08:09:11.648Z,7.93
2022-09-26T08:12:01.467Z,8.07
2022-09-26T08:14:50.341Z,9.15
2022-09-26T08:17:34.258Z,8.57
2022-09-26T08:20:09.170Z,8.90
2022-09-26T08:22:43.417Z,10.18
2022-09-26T08:25:20.617Z,8.57
2022-09-26T08:28:10.058Z,9.98
2022-09-26T08:30:45.153Z,9.63
2022-09-26T08:33:19.285Z,9.02
2022-09-26T08:35:52.319Z,7.43
2022-09-26T08:38:40.385Z,7.80
2022-09-26T08:42:03.542Z,7.57
2022-09-26T08:45:02.057Z,9.07
2022-09-26T08:47:53.818Z,7.93
2022-09-26T08:50:44.712Z,9.95
2022-09-26T08:53:22.896Z,9.98
2022-09-26T08:56:04.179Z,9.82
2022-09-26T08:58:44.357Z,10.95
2022-09-26T09:01:25.600Z,9.23
2022-09-26T09:04:16.783Z,10.18
2022-09-26T09:07:05.622Z,11.07
2022-09-26T09:09:39.171Z,11.68
2022-09-26T09:12:33.812Z,10.25
2022-09-26T09:18:30.627Z,9.90
2022-09-26T09:21:39.358Z,8.38
2022-09-26T09:24:35.171Z,9.20
2022-09-26T09:27:54.089Z,10.00
2022-09-26T09:30:44.663Z,10.68
2022-09-26T09:33:38.030Z,10.73
2022-09-26T09:36:44.371Z,9.77
2022-09-26T09:39:36.196Z,10.40
2022-09-26T09:42:34.345Z,13.73
2022-09-26T09:45:19.333Z,12.00
2022-09-26T09:47:51.944Z,11.18
2022-09-26T09:50:48.518Z,9.57
2022-09-26T09:53:40.519Z,12.77
2022-09-26T09:56:20.042Z,14.90
2022-09-26T09:59:04.000Z,14.82
2022-09-26T10:02:00.449Z,17.50
2022-09-26T10:04:46.588Z,12.88
2022-09-26T10:07:21.843Z,13.90
2022-09-26T10:10:21.381Z,13.63
2022-09-26T10:13:11.728Z,13.95
2022-09-26T10:16:07.235Z,13.23
2022-09-26T10:19:10.692Z,12.50
2022-09-26T10:21:48.851Z,12.55
2022-09-26T10:24:34.534Z,10.48
2022-09-26T10:27:22.412Z,14.38
2022-09-26T10:29:59.955Z,12.00
2022-09-26T10:32:46.154Z,10.40
2022-09-26T10:35:51.962Z,12.88
2022-09-26T10:38:28.662Z,13.23
2022-09-26T10:41:23.790Z,13.75
2022-09-26T10:43:59.572Z,14.55
2022-09-26T10:46:51.673Z,11.32
2022-09-26T10:49:51.819Z,11.80
2022-09-26T10:52:47.234Z,13.75
2022-09-26T10:55:25.672Z,12.50
2022-09-26T10:58:02.498Z,13.57
2022-09-26T11:00:39.315Z,11.82
2022-09-26T11:03:24.523Z,10.98
2022-09-26T11:06:33.170Z,11.38
2022-09-26T11:09:21.214Z,11.48
2022-09-26T11:12:26.402Z,9.73
2022-09-26T11:15:08.706Z,12.75
2022-09-26T11:17:48.177Z,11.30
2022-09-26T11:20:46.029Z,9.60
2022-09-26T11:23:32.175Z,13.18
2022-09-26T11:26:15.464Z,14.65
2022-09-26T11:29:04.079Z,13.48
2022-09-26T11:31:45.562Z,13.02
2022-09-26T11:34:35.417Z,13.05
2022-09-26T11:40:17.153Z,15.65
2022-09-26T11:43:06.745Z,17.52
2022-09-26T11:46:04.782Z,11.23
2022-09-26T11:49:06.235Z,12.85
2022-09-26T11:52:14.741Z,14.50
2022-09-26T11:54:57.920Z,12.65
2022-09-26T11:57:38.323Z,10.75
2022-09-26T12:00:24.780Z,10.60
2022-09-26T12:03:30.560Z,14.18
2022-09-26T12:06:19.147Z,13.25
2022-09-26T12:09:04.822Z,13.98
2022-09-26T12:11:53.708Z,13.10
2022-09-26T12:14:48.371Z,11.60
2022-09-26T12:17:35.331Z,14.00
2022-09-26T12:20:25.184Z,13.25
2022-09-26T12:23:09.124Z,13.48
2022-09-26T12:25:57.277Z,14.10
2022-09-26T12:29:00.600Z,13.27
2022-09-26T12:31:52.393Z,23.30
2022-09-26T12:34:42.250Z,10.18
2022-09-26T12:37:33.894Z,18.83
2022-09-26T12:40:11.538Z,10.35
2022-09-26T12:42:46.843Z,13.13
2022-09-26T12:45:29.756Z,29.40
2022-09-26T12:48:34.509Z,12.63
2022-09-26T12:51:16.746Z,14.57
2022-09-26T12:54:00.031Z,13.10
2022-09-26T12:56:47.379Z,13.20
2022-09-26T12:59:35.308Z,11.32
2022-09-26T13:02:23.479Z,17.70
2022-09-26T13:05:15.750Z,12.98
2022-09-26T13:08:11.180Z,26.95
2022-09-26T13:10:56.614Z,13.85
2022-09-26T13:13:54.397Z,14.00
2022-09-26T13:16:50.137Z,16.80
2022-09-26T13:19:41.256Z,17.55
2022-09-26T13:22:31.730Z,13.93
2022-09-26T13:25:20.125Z,11.52
2022-09-26T13:27:53.242Z,15.35
2022-09-26T13:30:36.335Z,12.05
2022-09-26T13:33:39.865Z,24.30
2022-09-26T13:36:14.157Z,15.23
2022-09-26T13:38:56.201Z,13.63
2022-09-26T13:41:50.760Z,16.13
2022-09-26T13:44:30.412Z,11.38
2022-09-26T13:47:23.021Z,10.75
2022-09-26T13:50:04.670Z,14.88
2022-09-26T13:52:56.820Z,15.10
2022-09-26T13:55:30.184Z,12.48
2022-09-26T13:58:07.834Z,12.63
2022-09-26T14:00:49.436Z,18.73
2022-09-26T14:03:23.970Z,10.18
2022-09-26T14:06:09.456Z,12.25
2022-09-26T14:09:07.927Z,19.63
2022-09-26T14:11:49.871Z,18.92
2022-09-26T14:14:27.033Z,13.30
2022-09-26T14:17:07.777Z,12.45
2022-09-26T14:19:50.117Z,21.80
2022-09-26T14:22:26.666Z,12.30
2022-09-26T14:25:00.382Z,29.65
2022-09-26T14:27:37.125Z,11.77
2022-09-26T14:30:25.885Z,11.60
2022-09-26T14:33:03.604Z,12.02
2022-09-26T14:35:38.943Z,16.05
2022-09-26T14:38:21.895Z,18.80
2022-09-26T14:40:57.313Z,14.65
2022-09-26T14:43:31.561Z,13.45
2022-09-26T14:46:07.866Z,12.02
2022-09-26T14:48:42.484Z,11.25
2022-09-26T14:51:16.389Z,14.23
2022-09-26T14:53:49.834Z,14.43
2022-09-26T14:56:38.416Z,11.57
2022-09-26T14:59:40.349Z,15.20
2022-09-26T15:02:14.810Z,14.82
2022-09-26T15:04:53.374Z,14.13
2022-09-26T15:07:27.721Z,14.90
2022-09-26T15:10:04.746Z,10.82
2022-09-26T15:12:41.901Z,15.70
2022-09-26T15:15:35.472Z,10.30
2022-09-26T15:18:27.233Z,10.55
2022-09-26T15:21:10.361Z,13.05
2022-09-26T15:23:52.195Z,11.25
2022-09-26T15:26:29.089Z,15.82
2022-09-26T15:29:04.718Z,12.40
2022-09-26T15:31:37.992Z,11.50
2022-09-26T15:34:16.918Z,14.73
2022-09-26T15:36:56.800Z,19.33
2022-09-26T15:39:33.352Z,15.50
2022-09-26T15:42:36.798Z,17.23
2022-09-26T15:45:30.668Z,15.10
2022-09-26T15:48:21.430Z,15.50
2022-09-26T15:51:08.802Z,15.80
2022-09-26T15:53:56.066Z,14.95
2022-09-26T15:56:35.249Z,16.98
2022-09-26T15:59:40.057Z,13.23
2022-09-26T16:02:23.958Z,13.07
2022-09-26T16:04:56.935Z,14.65
2022-09-26T16:07:31.795Z,18.60
2022-09-26T16:10:20.442Z,13.98
2022-09-26T16:12:53.487Z,15.48
2022-09-26T16:15:30.272Z,13.85
2022-09-26T16:18:02.927Z,13.75
2022-09-26T16:20:35.441Z,12.75
2022-09-26T16:23:27.691Z,15.63
2022-09-26T16:26:00.331Z,14.70
2022-09-26T16:28:42.770Z,16.67
2022-09-26T16:31:24.658Z,15.43
2022-09-26T16:33:59.594Z,16.10
2022-09-26T16:36:35.306Z,15.80
2022-09-26T16:39:21.781Z,15.20
2022-09-26T16:42:01.874Z,16.08
2022-09-26T16:44:41.448Z,15.38
2022-09-26T16:47:44.506Z,19.55
2022-09-26T16:50:29.060Z,17.55
2022-09-26T16:53:03.397Z,16.27
2022-09-26T16:55:37.854Z,20.90
2022-09-26T16:58:13.606Z,17.48
2022-09-26T17:01:02.329Z,21.90
2022-09-26T17:03:36.778Z,17.30
2022-09-26T17:06:10.453Z,16.83
2022-09-26T17:08:42.909Z,15.00
2022-09-26T17:11:16.759Z,14.50
2022-09-26T17:13:50.860Z,18.30
2022-09-26T17:16:23.943Z,18.58
2022-09-26T17:18:57.941Z,15.55
2022-09-26T17:21:30.743Z,14.02
2022-09-26T17:24:04.046Z,18.35
2022-09-26T17:26:36.991Z,15.70
2022-09-26T17:29:19.407Z,14.70
2022-09-26T17:31:54.456Z,12.65
2022-09-26T17:34:29.543Z,4.20
2022-09-26T17:37:02.425Z,5.20
2022-09-26T17:39:34.995Z,3.00
2022-09-26T17:42:07.659Z,5.45
2022-09-26T17:44:43.461Z,4.40
2022-09-26T17:47:19.413Z,3.75
2022-09-26T17:49:56.473Z,2.95
2022-09-26T17:52:32.447Z,2.95
2022-09-26T17:55:07.941Z,3.20
2022-09-26T17:57:41.851Z,3.03
2022-09-26T18:00:18.472Z,3.95
2022-09-26T18:02:57.480Z,3.15
2022-09-26T18:05:36.935Z,3.13
2022-09-26T18:08:20.354Z,3.05
2022-09-26T18:10:58.194Z,4.10
2022-09-26T18:13:34.075Z,4.15
2022-09-26T18:16:07.493Z,3.63
2022-09-26T18:18:40.330Z,6.45
2022-09-26T18:21:17.383Z,7.60
2022-09-26T18:23:53.476Z,4.55
2022-09-26T18:26:30.641Z,5.05
2022-09-26T18:29:08.344Z,4.40
2022-09-26T18:31:45.601Z,4.40
2022-09-26T18:34:20.978Z,4.78
2022-09-26T18:37:00.500Z,4.38
2022-09-26T18:39:33.224Z,2.70
2022-09-26T18:42:09.562Z,5.75
2022-09-26T18:44:42.885Z,3.20
2022-09-26T18:47:18.021Z,2.85
2022-09-26T18:49:50.683Z,5.47
2022-09-26T18:52:23.348Z,5.22
2022-09-26T18:55:11.694Z,4.28
2022-09-26T18:58:00.621Z,5.03
2022-09-26T19:00:35.822Z,6.40
2022-09-26T19:03:09.530Z,4.47
2022-09-26T19:05:42.510Z,4.93
2022-09-26T19:08:34.394Z,5.57
2022-09-26T19:11:15.737Z,2.97
2022-09-26T19:13:52.293Z,6.03
2022-09-26T19:16:25.853Z,4.03
2022-09-26T19:18:59.079Z,3.25
2022-09-26T19:21:36.378Z,2.63
2022-09-26T19:24:20.987Z,4.25
2022-09-26T19:26:58.971Z,4.00
2022-09-26T19:29:38.296Z,5.82
2022-09-26T19:32:21.057Z,6.05
2022-09-26T19:34:59.343Z,3.83
2022-09-26T19:37:32.448Z,4.32
2022-09-26T19:40:14.406Z,4.95
2022-09-26T19:42:49.829Z,5.45
2022-09-26T19:45:23.376Z,6.82
2022-09-26T19:47:56.512Z,4.97
2022-09-26T19:50:32.749Z,4.25
2022-09-26T19:53:14.789Z,5.18
2022-09-26T19:55:50.630Z,4.40
2022-09-26T19:58:26.263Z,4.07
2022-09-26T20:01:06.238Z,4.32
2022-09-26T20:03:42.469Z,5.38
2022-09-26T20:06:21.636Z,3.30
2022-09-26T20:09:01.277Z,2.95
2022-09-26T20:11:34.904Z,6.00
2022-09-26T20:14:23.459Z,6.35
2022-09-26T20:17:00.765Z,4.05
2022-09-26T20:19:37.821Z,3.55
2022-09-26T20:22:16.089Z,3.80
2022-09-26T20:24:52.783Z,3.38
2022-09-26T20:27:28.411Z,2.75
2022-09-26T20:30:17.103Z,4.03
2022-09-26T20:32:49.707Z,6.30
2022-09-26T20:35:22.278Z,3.35
2022-09-26T20:38:01.452Z,3.22
2022-09-26T20:40:35.624Z,4.10
2022-09-26T20:43:16.718Z,4.90
2022-09-26T20:45:49.545Z,5.00
2022-09-26T20:48:25.655Z,5.13
2022-09-26T20:50:59.204Z,6.53
2022-09-26T20:53:32.094Z,4.75
2022-09-26T20:56:06.455Z,3.45
2022-09-26T20:58:39.063Z,4.95
2022-09-26T21:01:17.136Z,3.33
2022-09-26T21:03:51.488Z,3.45
2022-09-26T21:06:28.199Z,4.50
2022-09-26T21:09:01.414Z,5.90
2022-09-26T21:11:34.245Z,3.65
2022-09-26T21:14:06.815Z,4.80
2022-09-26T21:16:43.908Z,3.63
2022-09-26T21:19:21.532Z,5.63
2022-09-26T21:21:57.851Z,4.90
2022-09-26T21:24:45.795Z,4.18
2022-09-26T21:27:18.636Z,5.60
2022-09-26T21:29:51.282Z,4.50
2022-09-26T21:32:24.148Z,4.07
2022-09-26T21:35:03.829Z,5.32
2022-09-26T21:37:36.963Z,4.53
2022-09-26T21:40:10.671Z,5.05
2022-09-26T21:42:49.769Z,4.95
2022-09-26T21:45:27.059Z,4.18
2022-09-26T21:48:00.745Z,3.63
2022-09-26T21:50:33.465Z,4.63
2022-09-26T21:53:13.433Z,5.88
2022-09-26T21:55:51.706Z,4.05
2022-09-26T21:58:28.805Z,3.08
2022-09-26T22:01:01.292Z,6.32
2022-09-26T22:03:34.118Z,3.25
2022-09-26T22:06:09.598Z,5.43
2022-09-26T22:08:42.780Z,6.05
2022-09-26T22:11:15.371Z,4.00
2022-09-26T22:13:48.254Z,5.57
2022-09-26T22:16:20.991Z,5.03
2022-09-26T22:18:53.837Z,5.95
2022-09-26T22:21:26.796Z,4.65
2022-09-26T22:24:00.321Z,3.90
2022-09-26T22:26:32.913Z,6.25
2022-09-26T22:29:06.367Z,5.50
2022-09-26T22:31:38.917Z,4.03
2022-09-26T22:34:12.012Z,5.40
2022-09-26T22:36:44.559Z,6.25
2022-09-26T22:39:17.345Z,4.10
2022-09-26T22:41:50.101Z,3.25
2022-09-26T22:44:22.695Z,3.88
2022-09-26T22:46:55.205Z,4.90
2022-09-26T22:49:27.839Z,3.83
2022-09-26T22:52:00.766Z,4.25
2022-09-26T22:54:33.567Z,3.28
2022-09-26T22:57:06.182Z,3.92
2022-09-26T22:59:39.657Z,5.90
2022-09-26T23:02:12.494Z,5.53
2022-09-26T23:04:48.694Z,6.40
2022-09-26T23:07:21.389Z,4.38
2022-09-26T23:09:54.090Z,3.00
2022-09-26T23:12:26.736Z,4.15
2022-09-26T23:14:59.347Z,4.38
2022-09-26T23:17:33.390Z,4.35
2022-09-26T23:20:07.453Z,4.43
2022-09-26T23:22:39.979Z,4.55
2022-09-26T23:25:14.157Z,6.90
2022-09-26T23:27:46.738Z,3.60
2022-09-26T23:30:19.362Z,5.18
2022-09-26T23:32:52.241Z,7.05
2022-09-26T23:35:24.888Z,3.75
2022-09-26T23:37:58.179Z,7.13
2022-09-26T23:40:32.725Z,4.95
2022-09-26T23:43:05.661Z,6.18
2022-09-26T23:45:38.376Z,4.75
2022-09-26T23:48:11.024Z,3.95
2022-09-26T23:50:46.142Z,4.45
2022-09-26T23:53:18.669Z,5.00
2022-09-26T23:55:51.582Z,6.60
2022-09-26T23:58:24.309Z,5.25
